createdAt,value
2022-09-01T00:01:42.293Z,18.10
2022-09-01T00:04:12.882Z,18.19
2022-09-01T00:06:41.147Z,18.16
2022-09-01T00:09:15.312Z,18.16
2022-09-01T00:11:50.347Z,18.05
2022-09-01T00:14:29.948Z,17.98
2022-09-01T00:17:04.176Z,17.98
2022-09-01T00:19:33.367Z,17.98
2022-09-01T00:22:00.862Z,17.96
2022-09-01T00:24:28.068Z,17.92
2022-09-01T00:26:56.160Z,17.79
2022-09-01T00:29:24.473Z,17.92
2022-09-01T00:31:51.832Z,17.95
2022-09-01T00:34:20.124Z,17.89
2022-09-01T00:36:48.134Z,18.05
2022-09-01T00:39:15.744Z,17.79
2022-09-01T00:41:44.255Z,17.75
2022-09-01T00:44:15.047Z,17.92
2022-09-01T00:46:50.420Z,18.03
2022-09-01T00:49:31.628Z,17.91
2022-09-01T00:52:10.871Z,17.98
2022-09-01T00:54:41.746Z,17.75
2022-09-01T00:57:10.910Z,17.83
2022-09-01T00:59:42.878Z,17.59
2022-09-01T01:02:11.358Z,17.54
2022-09-01T01:04:38.300Z,17.66
2022-09-01T01:07:06.456Z,17.65
2022-09-01T01:09:35.590Z,17.83
2022-09-01T01:12:05.802Z,17.65
2022-09-01T01:14:37.015Z,17.47
2022-09-01T01:17:04.064Z,17.42
2022-09-01T01:20:23.157Z,17.48
2022-09-01T01:23:37.240Z,17.44
2022-09-01T01:26:05.527Z,17.69
2022-09-01T01:28:48.810Z,17.75
2022-09-01T01:31:18.489Z,17.82
2022-09-01T01:33:55.596Z,17.82
2022-09-01T01:36:27.051Z,17.63
2022-09-01T01:38:55.658Z,17.57
2022-09-01T01:41:24.340Z,17.41
2022-09-01T01:43:51.199Z,17.61
2022-09-01T01:46:19.354Z,17.55
2022-09-01T01:48:47.313Z,17.59
2022-09-01T01:51:14.034Z,17.66
2022-09-01T01:53:41.002Z,17.61
2022-09-01T01:56:09.088Z,17.83
2022-09-01T01:58:36.106Z,17.76
2022-09-01T02:01:03.693Z,17.68
2022-09-01T02:03:38.553Z,17.66
2022-09-01T02:06:10.620Z,17.76
2022-09-01T02:08:39.693Z,17.68
2022-09-01T02:11:08.103Z,17.65
2022-09-01T02:13:35.273Z,17.73
2022-09-01T02:16:07.756Z,17.76
2022-09-01T02:18:41.002Z,17.71
2022-09-01T02:21:16.285Z,17.58
2022-09-01T02:23:46.330Z,17.42
2022-09-01T02:26:17.565Z,17.32
2022-09-01T02:28:54.750Z,17.48
2022-09-01T02:31:23.163Z,17.54
2022-09-01T02:33:50.071Z,17.52
2022-09-01T02:36:19.340Z,17.48
2022-09-01T02:38:53.651Z,17.51
2022-09-01T02:41:29.378Z,17.59
2022-09-01T02:43:56.986Z,17.76
2022-09-01T02:46:24.666Z,17.73
2022-09-01T02:48:52.019Z,17.83
2022-09-01T02:51:20.745Z,17.85
2022-09-01T02:53:53.247Z,17.92
2022-09-01T02:56:23.911Z,17.92
2022-09-01T02:58:53.017Z,17.96
2022-09-01T03:01:32.836Z,18.02
2022-09-01T03:04:05.851Z,17.95
2022-09-01T03:06:34.607Z,17.93
2022-09-01T03:09:01.457Z,17.85
2022-09-01T03:11:30.752Z,17.96
2022-09-01T03:13:57.891Z,17.95
2022-09-01T03:16:24.552Z,17.93
2022-09-01T03:18:52.291Z,17.82
2022-09-01T03:21:19.397Z,17.65
2022-09-01T03:23:47.015Z,17.71
2022-09-01T03:26:14.692Z,17.66
2022-09-01T03:28:41.247Z,17.79
2022-09-01T03:31:09.137Z,17.71
2022-09-01T03:33:36.876Z,17.72
2022-09-01T03:36:04.296Z,17.71
2022-09-01T03:38:32.174Z,17.69
2022-09-01T03:41:02.086Z,17.55
2022-09-01T03:43:35.993Z,17.66
2022-09-01T03:46:03.459Z,17.59
2022-09-01T03:48:32.149Z,17.65
2022-09-01T03:51:03.415Z,17.42
2022-09-01T03:53:34.296Z,17.32
2022-09-01T03:56:01.708Z,17.23
2022-09-01T03:58:28.327Z,16.97
2022-09-01T04:01:01.276Z,17.02
2022-09-01T04:03:32.004Z,16.97
2022-09-01T04:06:00.291Z,16.73
2022-09-01T04:08:32.957Z,16.75
2022-09-01T04:11:09.998Z,16.63
2022-09-01T04:13:39.286Z,16.94
2022-09-01T04:16:10.875Z,16.62
2022-09-01T04:18:40.123Z,16.65
2022-09-01T04:21:08.188Z,16.62
2022-09-01T04:23:37.211Z,16.71
2022-09-01T04:26:11.470Z,16.66
2022-09-01T04:28:46.097Z,16.34
2022-09-01T04:31:19.973Z,16.76
2022-09-01T04:33:49.621Z,16.46
2022-09-01T04:36:31.533Z,16.29
2022-09-01T04:39:00.771Z,16.26
2022-09-01T04:41:32.802Z,16.24
2022-09-01T04:44:04.876Z,16.43
2022-09-01T04:46:37.338Z,16.65
2022-09-01T04:49:12.887Z,16.53
2022-09-01T04:51:41.428Z,16.52
2022-09-01T04:54:12.850Z,16.66
2022-09-01T04:56:40.045Z,16.61
2022-09-01T04:59:08.278Z,16.53
2022-09-01T05:01:45.361Z,16.51
2022-09-01T05:04:17.938Z,16.59
2022-09-01T05:06:47.224Z,16.55
2022-09-01T05:09:14.204Z,16.62
2022-09-01T05:11:45.437Z,16.62
2022-09-01T05:14:13.313Z,16.66
2022-09-01T05:16:43.117Z,16.53
2022-09-01T05:19:14.834Z,16.48
2022-09-01T05:21:45.756Z,16.46
2022-09-01T05:24:19.077Z,16.76
2022-09-01T05:26:47.616Z,16.56
2022-09-01T05:29:17.792Z,16.59
2022-09-01T05:31:47.340Z,16.77
2022-09-01T05:34:20.091Z,16.72
2022-09-01T05:36:50.593Z,16.75
2022-09-01T05:39:17.372Z,16.77
2022-09-01T05:41:44.140Z,17.04
2022-09-01T05:44:11.359Z,16.99
2022-09-01T05:46:39.998Z,17.02
2022-09-01T05:49:09.367Z,17.03
2022-09-01T05:51:45.795Z,17.21
2022-09-01T05:54:15.121Z,17.34
2022-09-01T05:56:43.872Z,17.38
2022-09-01T05:59:27.039Z,17.27
2022-09-01T06:01:54.852Z,17.48
2022-09-01T06:04:23.107Z,17.52
2022-09-01T06:07:07.794Z,17.51
2022-09-01T06:09:45.006Z,17.59
2022-09-01T06:12:18.512Z,17.69
2022-09-01T06:14:47.616Z,17.79
2022-09-01T06:17:16.740Z,17.79
2022-09-01T06:19:43.973Z,17.81
2022-09-01T06:22:11.211Z,17.87
2022-09-01T06:24:43.433Z,18.00
2022-09-01T06:27:10.654Z,18.12
2022-09-01T06:33:40.425Z,18.16
2022-09-01T06:36:09.514Z,18.06
2022-09-01T06:38:37.786Z,18.47
2022-09-01T06:41:13.018Z,18.57
2022-09-01T06:43:44.705Z,18.61
2022-09-01T06:46:11.501Z,18.44
2022-09-01T06:48:46.636Z,18.54
2022-09-01T06:51:20.941Z,18.63
2022-09-01T06:53:56.435Z,18.74
2022-09-01T06:56:24.424Z,18.84
2022-09-01T06:58:55.858Z,18.84
2022-09-01T07:01:23.251Z,18.91
2022-09-01T07:03:52.774Z,19.15
2022-09-01T07:09:32.126Z,19.20
2022-09-01T07:12:25.467Z,19.49
2022-09-01T07:17:42.721Z,19.84
2022-09-01T07:20:27.126Z,19.92
2022-09-01T07:26:01.256Z,20.17
2022-09-01T07:28:40.394Z,20.38
2022-09-01T07:39:48.424Z,22.24
2022-09-01T07:45:26.038Z,22.16
2022-09-01T07:47:54.044Z,23.07
2022-09-01T07:50:38.617Z,23.18
2022-09-01T07:53:08.606Z,23.33
2022-09-01T07:55:35.360Z,23.76
2022-09-01T07:58:01.971Z,23.83
2022-09-01T08:00:31.651Z,24.48
2022-09-01T08:02:58.814Z,24.20
2022-09-01T08:05:27.298Z,23.77
2022-09-01T08:07:54.538Z,24.44
2022-09-01T08:10:22.220Z,24.53
2022-09-01T08:12:57.523Z,23.90
2022-09-01T08:16:06.533Z,24.04
2022-09-01T08:18:14.571Z,25.22
2022-09-01T08:20:45.765Z,25.07
2022-09-01T08:23:15.016Z,25.23
2022-09-01T08:25:44.186Z,25.31
2022-09-01T08:28:12.196Z,25.68
2022-09-01T08:30:40.995Z,25.43
2022-09-01T08:33:11.811Z,25.61
2022-09-01T08:35:43.789Z,24.82
2022-09-01T08:38:10.718Z,24.68
2022-09-01T08:40:37.499Z,25.50
2022-09-01T08:43:15.629Z,26.09
2022-09-01T08:45:51.225Z,24.92
2022-09-01T08:51:30.921Z,25.82
2022-09-01T08:54:30.009Z,25.80
2022-09-01T08:57:05.137Z,25.24
2022-09-01T08:59:31.872Z,25.94
2022-09-01T09:02:04.938Z,26.26
2022-09-01T09:05:02.002Z,25.31
2022-09-01T09:07:31.587Z,24.80
2022-09-01T09:10:07.327Z,26.84
2022-09-01T09:12:51.526Z,25.96
2022-09-01T09:15:21.336Z,26.15
2022-09-01T09:18:00.260Z,26.67
2022-09-01T09:20:28.795Z,26.47
2022-09-01T09:22:55.572Z,27.53
2022-09-01T09:25:24.300Z,26.53
2022-09-01T09:28:00.544Z,26.47
2022-09-01T09:30:31.462Z,27.52
2022-09-01T09:35:51.808Z,27.78
2022-09-01T09:38:33.046Z,26.90
2022-09-01T09:41:25.715Z,27.34
2022-09-01T09:44:20.503Z,27.07
2022-09-01T09:46:49.350Z,26.19
2022-09-01T09:49:36.593Z,26.59
2022-09-01T09:52:10.030Z,26.95
2022-09-01T09:54:39.456Z,27.46
2022-09-01T09:57:13.714Z,27.39
2022-09-01T09:59:58.867Z,27.45
2022-09-01T10:02:32.733Z,26.47
2022-09-01T10:05:06.960Z,27.76
2022-09-01T10:07:37.935Z,28.23
2022-09-01T10:10:25.294Z,29.16
2022-09-01T10:12:54.351Z,28.04
2022-09-01T10:15:25.935Z,28.95
2022-09-01T10:18:20.021Z,27.69
2022-09-01T10:21:07.942Z,26.67
2022-09-01T10:23:37.777Z,27.39
2022-09-01T10:26:19.346Z,27.25
2022-09-01T10:29:08.419Z,28.36
2022-09-01T10:31:40.423Z,28.78
2022-09-01T10:34:11.796Z,29.97
2022-09-01T10:36:40.615Z,28.40
2022-09-01T10:39:15.098Z,27.57
2022-09-01T10:41:59.865Z,27.51
2022-09-01T10:44:31.938Z,27.48
2022-09-01T10:47:02.400Z,29.02
2022-09-01T10:49:32.845Z,27.92
2022-09-01T10:52:06.584Z,26.62
2022-09-01T10:54:51.078Z,27.01
2022-09-01T10:57:27.724Z,26.71
2022-09-01T10:59:58.261Z,26.39
2022-09-01T11:02:27.486Z,27.48
2022-09-01T11:04:54.504Z,26.54
2022-09-01T11:07:29.734Z,26.98
2022-09-01T11:10:35.577Z,26.40
2022-09-01T11:13:30.286Z,25.43
2022-09-01T11:16:45.997Z,26.90
2022-09-01T11:19:27.581Z,28.61
2022-09-01T11:22:12.873Z,29.09
2022-09-01T11:24:39.538Z,29.53
2022-09-01T11:27:08.321Z,28.65
2022-09-01T11:29:55.513Z,27.88
2022-09-01T11:32:26.860Z,27.35
2022-09-01T11:34:56.066Z,27.12
2022-09-01T11:37:27.560Z,28.33
2022-09-01T11:40:02.644Z,28.00
2022-09-01T11:42:41.089Z,27.32
2022-09-01T11:45:23.119Z,28.58
2022-09-01T11:47:56.254Z,29.69
2022-09-01T11:50:27.045Z,30.01
2022-09-01T11:53:01.259Z,30.59
2022-09-01T11:55:40.848Z,29.87
2022-09-01T11:58:17.680Z,29.64
2022-09-01T12:00:44.913Z,30.07
2022-09-01T12:03:23.044Z,29.39
2022-09-01T12:05:59.472Z,28.51
2022-09-01T12:08:30.004Z,28.77
2022-09-01T12:11:09.884Z,28.91
2022-09-01T12:13:38.854Z,29.53
2022-09-01T12:16:24.898Z,28.67
2022-09-01T12:18:54.014Z,27.45
2022-09-01T12:21:38.316Z,29.40
2022-09-01T12:24:24.713Z,27.37
2022-09-01T12:26:54.866Z,26.90
2022-09-01T12:29:23.271Z,26.56
2022-09-01T12:31:52.654Z,27.20
2022-09-01T12:34:28.635Z,26.39
2022-09-01T12:37:25.031Z,26.60
2022-09-01T12:39:59.306Z,27.02
2022-09-01T12:42:29.992Z,26.86
2022-09-01T12:45:10.214Z,27.07
2022-09-01T12:47:37.626Z,26.97
2022-09-01T12:50:29.596Z,26.47
2022-09-01T12:53:05.105Z,26.13
2022-09-01T12:55:52.043Z,26.15
2022-09-01T12:58:29.507Z,26.47
2022-09-01T13:00:58.430Z,25.91
2022-09-01T13:03:27.687Z,26.28
2022-09-01T13:05:56.237Z,26.54
2022-09-01T13:08:28.639Z,26.35
2022-09-01T13:11:07.464Z,26.26
2022-09-01T13:13:35.458Z,26.12
2022-09-01T13:16:10.558Z,25.81
2022-09-01T13:21:24.811Z,26.40
2022-09-01T13:23:51.932Z,26.46
2022-09-01T13:26:18.877Z,26.64
2022-09-01T13:28:46.219Z,26.64
2022-09-01T13:31:29.471Z,27.18
2022-09-01T13:34:22.429Z,28.43
2022-09-01T13:36:47.310Z,29.05
2022-09-01T13:39:15.778Z,29.50
2022-09-01T13:41:43.199Z,29.83
2022-09-01T13:44:10.589Z,29.05
2022-09-01T13:46:58.954Z,29.57
2022-09-01T13:52:10.970Z,28.78
2022-09-01T13:54:37.551Z,28.82
2022-09-01T13:57:04.341Z,28.96
2022-09-01T13:59:33.058Z,29.97
2022-09-01T14:02:01.763Z,30.00
2022-09-01T14:04:28.485Z,30.61
2022-09-01T14:06:55.551Z,30.42
2022-09-01T14:09:22.831Z,30.38
2022-09-01T14:11:52.516Z,30.10
2022-09-01T14:14:19.184Z,31.07
2022-09-01T14:16:46.222Z,30.65
2022-09-01T14:19:13.478Z,30.11
2022-09-01T14:21:40.175Z,31.14
2022-09-01T14:24:07.030Z,31.00
2022-09-01T14:26:34.045Z,29.93
2022-09-01T14:29:02.566Z,29.47
2022-09-01T14:31:29.779Z,29.53
2022-09-01T14:33:56.399Z,29.57
2022-09-01T14:36:26.106Z,29.69
2022-09-01T14:38:54.091Z,28.92
2022-09-01T14:41:23.107Z,29.32
2022-09-01T14:43:51.496Z,30.31
2022-09-01T14:46:19.329Z,29.77
2022-09-01T14:48:47.941Z,30.20
2022-09-01T14:51:24.567Z,31.29
2022-09-01T14:53:53.177Z,31.45
2022-09-01T14:56:20.185Z,31.45
2022-09-01T14:58:49.791Z,30.79
2022-09-01T15:01:33.720Z,31.77
2022-09-01T15:04:01.648Z,31.87
2022-09-01T15:06:28.071Z,31.65
2022-09-01T15:08:55.093Z,31.85
2022-09-01T15:11:21.797Z,30.76
2022-09-01T15:13:52.628Z,29.83
2022-09-01T15:16:23.353Z,29.53
2022-09-01T15:18:50.311Z,28.94
2022-09-01T15:21:28.534Z,29.20
2022-09-01T15:23:55.229Z,28.89
2022-09-01T15:26:21.863Z,28.64
2022-09-01T15:28:51.030Z,28.41
2022-09-01T15:31:19.539Z,28.06
2022-09-01T15:34:00.698Z,27.76
2022-09-01T15:36:29.183Z,27.57
2022-09-01T15:38:57.559Z,27.59
2022-09-01T15:41:28.258Z,27.42
2022-09-01T15:43:56.108Z,27.59
2022-09-01T15:46:31.019Z,27.55
2022-09-01T15:48:59.226Z,27.24
2022-09-01T15:51:25.756Z,27.24
2022-09-01T15:53:57.284Z,27.07
2022-09-01T15:56:23.810Z,27.42
2022-09-01T15:59:00.896Z,27.34
2022-09-01T16:01:32.111Z,27.43
2022-09-01T16:03:59.045Z,27.52
2022-09-01T16:06:26.507Z,27.27
2022-09-01T16:08:54.576Z,26.88
2022-09-01T16:11:26.047Z,27.53
2022-09-01T16:13:53.871Z,28.13
2022-09-01T16:16:54.486Z,27.82
2022-09-01T16:19:48.293Z,27.30
2022-09-01T16:22:28.314Z,27.22
2022-09-01T16:25:00.332Z,27.30
2022-09-01T16:27:36.196Z,27.42
2022-09-01T16:30:08.095Z,27.31
2022-09-01T16:32:36.468Z,27.39
2022-09-01T16:35:04.212Z,27.80
2022-09-01T16:37:49.521Z,27.94
2022-09-01T16:40:34.637Z,27.82
2022-09-01T16:43:12.492Z,27.59
2022-09-01T16:45:57.793Z,27.12
2022-09-01T16:48:41.606Z,27.32
2022-09-01T16:51:44.810Z,27.10
2022-09-01T16:54:19.793Z,26.77
2022-09-01T16:56:50.896Z,26.76
2022-09-01T16:59:38.572Z,26.44
2022-09-01T17:02:17.025Z,26.44
2022-09-01T17:05:00.928Z,26.32
2022-09-01T17:07:49.949Z,26.28
2022-09-01T17:10:23.038Z,25.92
2022-09-01T17:12:52.881Z,25.73
2022-09-01T17:15:28.814Z,25.71
2022-09-01T17:18:29.359Z,25.53
2022-09-01T17:21:02.435Z,25.40
2022-09-01T17:23:38.152Z,25.68
2022-09-01T17:26:12.305Z,25.74
2022-09-01T17:28:45.504Z,25.67
2022-09-01T17:31:18.500Z,25.68
2022-09-01T17:33:47.822Z,25.53
2022-09-01T17:37:06.272Z,25.70
2022-09-01T17:39:44.447Z,25.61
2022-09-01T17:42:30.332Z,25.31
2022-09-01T17:45:06.104Z,25.26
2022-09-01T17:47:46.969Z,25.00
2022-09-01T17:50:33.111Z,24.78
2022-09-01T17:53:10.947Z,24.45
2022-09-01T17:59:14.639Z,24.21
2022-09-01T18:02:04.103Z,24.00
2022-09-01T18:04:49.256Z,23.83
2022-09-01T18:07:40.071Z,23.83
2022-09-01T18:10:13.655Z,23.71
2022-09-01T18:12:40.979Z,23.62
2022-09-01T18:15:10.452Z,23.70
2022-09-01T18:18:00.302Z,23.49
2022-09-01T18:20:36.952Z,23.52
2022-09-01T18:23:15.383Z,23.26
2022-09-01T18:25:47.793Z,23.23
2022-09-01T18:28:15.854Z,23.19
2022-09-01T18:30:54.699Z,23.23
2022-09-01T18:33:26.056Z,23.11
2022-09-01T18:36:12.901Z,22.94
2022-09-01T18:38:57.840Z,22.81
2022-09-01T18:41:43.614Z,22.67
2022-09-01T18:44:43.689Z,22.64
2022-09-01T18:47:11.821Z,22.57
2022-09-01T18:49:56.708Z,22.60
2022-09-01T18:52:35.266Z,22.43
2022-09-01T18:55:10.896Z,22.39
2022-09-01T18:57:40.256Z,22.26
2022-09-01T19:00:18.961Z,22.23
2022-09-01T19:02:55.864Z,22.13
2022-09-01T19:05:38.373Z,22.12
2022-09-01T19:08:23.788Z,22.10
2022-09-01T19:11:13.171Z,21.97
2022-09-01T19:13:59.512Z,21.99
2022-09-01T19:16:44.837Z,21.86
2022-09-01T19:20:08.674Z,21.76
2022-09-01T19:22:41.038Z,21.62
2022-09-01T19:25:32.553Z,21.62
2022-09-01T19:28:39.813Z,21.45
2022-09-01T19:31:06.600Z,21.37
2022-09-01T19:33:38.871Z,21.32
2022-09-01T19:36:11.323Z,21.21
2022-09-01T19:38:38.420Z,21.17
2022-09-01T19:41:33.191Z,21.17
2022-09-01T19:44:24.506Z,21.01
2022-09-01T19:47:02.999Z,21.00
2022-09-01T19:49:52.117Z,21.04
2022-09-01T19:52:44.317Z,20.94
2022-09-01T19:55:14.726Z,20.94
2022-09-01T19:57:53.771Z,20.90
2022-09-01T20:00:55.914Z,20.77
2022-09-01T20:03:29.464Z,20.75
2022-09-01T20:06:23.500Z,20.80
2022-09-01T20:09:02.158Z,20.69
2022-09-01T20:11:38.698Z,20.57
2022-09-01T20:14:30.182Z,20.45
2022-09-01T20:17:01.899Z,20.42
2022-09-01T20:19:58.066Z,20.39
2022-09-01T20:22:38.230Z,20.39
2022-09-01T20:25:10.282Z,20.29
2022-09-01T20:27:52.119Z,20.28
2022-09-01T20:30:29.193Z,20.28
2022-09-01T20:32:59.680Z,20.21
2022-09-01T20:35:39.876Z,20.21
2022-09-01T20:38:32.120Z,20.24
2022-09-01T20:41:04.172Z,20.29
2022-09-01T20:43:37.614Z,20.26
2022-09-01T20:46:04.266Z,20.29
2022-09-01T20:48:38.707Z,20.26
2022-09-01T20:51:08.161Z,20.26
2022-09-01T20:53:40.744Z,20.33
2022-09-01T20:56:10.214Z,20.26
2022-09-01T20:58:46.656Z,20.26
2022-09-01T21:01:37.509Z,20.28
2022-09-01T21:04:14.820Z,20.21
2022-09-01T21:06:57.813Z,20.15
2022-09-01T21:09:30.230Z,20.14
2022-09-01T21:12:10.362Z,20.21
2022-09-01T21:14:55.148Z,20.21
2022-09-01T21:17:31.036Z,20.19
2022-09-01T21:20:32.737Z,20.21
2022-09-01T21:23:00.854Z,20.14
2022-09-01T21:25:28.588Z,20.11
2022-09-01T21:27:59.810Z,20.08
2022-09-01T21:30:31.412Z,20.19
2022-09-01T21:32:58.293Z,20.04
2022-09-01T21:35:24.939Z,20.04
2022-09-01T21:37:52.096Z,20.02
2022-09-01T21:40:22.897Z,20.09
2022-09-01T21:43:05.889Z,20.07
2022-09-01T21:45:35.389Z,20.02
2022-09-01T21:48:02.717Z,19.95
2022-09-01T21:50:29.497Z,19.97
2022-09-01T21:52:56.297Z,19.97
2022-09-01T21:55:24.256Z,19.91
2022-09-01T21:57:51.888Z,19.90
2022-09-01T22:00:21.325Z,19.87
2022-09-01T22:02:48.458Z,19.88
2022-09-01T22:05:15.541Z,19.88
2022-09-01T22:07:45.520Z,19.77
2022-09-01T22:10:18.158Z,19.82
2022-09-01T22:12:46.565Z,19.78
2022-09-01T22:15:15.658Z,19.81
2022-09-01T22:17:42.603Z,19.82
2022-09-01T22:20:11.402Z,19.81
2022-09-01T22:22:38.154Z,19.80
2022-09-01T22:25:11.634Z,19.84
2022-09-01T22:27:38.758Z,19.75
2022-09-01T22:30:06.713Z,19.71
2022-09-01T22:32:36.258Z,19.73
2022-09-01T22:35:08.499Z,19.77
2022-09-01T22:37:35.917Z,19.73
2022-09-01T22:40:04.262Z,19.74
2022-09-01T22:42:31.016Z,19.73
2022-09-01T22:44:57.784Z,19.78
2022-09-01T22:47:24.589Z,19.67
2022-09-01T22:49:51.126Z,19.70
2022-09-01T22:52:18.271Z,19.70
2022-09-01T22:54:44.802Z,19.67
2022-09-01T22:57:11.877Z,19.66
2022-09-01T22:59:41.876Z,19.61
2022-09-01T23:02:10.289Z,19.60
2022-09-01T23:04:38.520Z,19.59
2022-09-01T23:07:07.240Z,19.54
2022-09-01T23:09:34.390Z,19.66
2022-09-01T23:12:00.989Z,19.57
2022-09-01T23:14:28.342Z,19.56
2022-09-01T23:16:55.393Z,19.45
2022-09-01T23:19:23.180Z,19.43
2022-09-01T23:21:51.144Z,19.50
2022-09-01T23:24:19.898Z,19.46
2022-09-01T23:26:47.446Z,19.47
2022-09-01T23:29:14.050Z,19.46
2022-09-01T23:31:40.898Z,19.45
2022-09-01T23:34:08.693Z,19.39
2022-09-01T23:36:36.525Z,19.35
2022-09-01T23:39:03.948Z,19.36
2022-09-01T23:41:32.650Z,19.36
2022-09-01T23:44:03.491Z,19.39
2022-09-01T23:46:37.103Z,19.36
2022-09-01T23:49:04.925Z,19.26
2022-09-01T23:51:31.501Z,19.24
2022-09-01T23:53:58.230Z,19.18
2022-09-01T23:56:27.723Z,19.30
